Time;durP1;ratioP1;P1;durP2;ratioP2;P2;SDS_P1;SDS_P2;PMS_P1;PMS_P2;Temp;Humidity;BMP_temperature;BMP_pressure;BME280_temperature;BME280_humidity;BME280_pressure;Samples;Min_cycle;Max_cycle;Signal;HPM_P1;HPM_P2
2022/04/30 00:00:18;;;;;;;7.30;6.00;;;14.40;83.10;;;14.57;55.83;95360.53;5050321;28;20484;-54
2022/04/30 00:02:45;;;;;;;5.20;4.80;;;14.40;82.90;;;14.57;55.94;95362.38;5051646;28;20504;-55
2022/04/30 00:05:17;;;;;;;6.30;5.70;;;14.40;82.90;;;14.56;55.91;95358.03;5052811;28;20874;-55
2022/04/30 00:07:45;;;;;;;6.77;6.13;;;14.40;82.90;;;14.55;55.99;95359.88;5054699;28;20451;-55
2022/04/30 00:10:13;;;;;;;6.60;6.00;;;14.40;82.80;;;14.53;55.78;95360.03;5056764;28;20487;-55
2022/04/30 00:12:40;;;;;;;7.30;6.20;;;14.40;82.80;;;14.51;55.55;95359.31;5058354;28;20460;-54
2022/04/30 00:15:09;;;;;;;6.17;5.67;;;14.30;82.60;;;14.49;55.92;95355.19;5051898;28;20486;-56
2022/04/30 00:17:36;;;;;;;5.73;5.23;;;14.30;82.70;;;14.47;55.99;95360.63;5054117;28;20458;-55
2022/04/30 00:20:05;;;;;;;6.60;6.10;;;14.30;82.80;;;14.43;55.72;95363.72;5047866;28;21070;-55
2022/04/30 00:22:34;;;;;;;8.20;5.63;;;14.30;83.00;;;14.38;56.13;95361.53;5049390;28;20979;-56
2022/04/30 00:25:01;;;;;;;6.80;6.10;;;14.20;82.90;;;14.35;56.24;95362.66;5046698;28;20871;-55
2022/04/30 00:27:29;;;;;;;6.47;5.80;;;14.20;83.10;;;14.33;56.10;95358.53;5057687;28;20559;-56
2022/04/30 00:29:58;;;;;;;6.47;5.90;;;14.20;83.20;;;14.31;55.96;95361.31;5050528;28;20479;-56
2022/04/30 00:32:25;;;;;;;7.53;6.13;;;14.20;84.10;;;14.29;56.08;95363.25;5052719;28;20447;-55
2022/04/30 00:34:53;;;;;;;5.87;5.23;;;14.10;83.40;;;14.27;56.05;95359.13;5058525;28;20842;-57
2022/04/30 00:37:20;;;;;;;7.80;5.27;;;14.10;83.40;;;14.26;56.08;95358.28;5051882;28;20467;-55
2022/04/30 00:39:49;;;;;;;7.43;5.00;;;14.10;83.50;;;14.26;56.18;95352.16;5052664;28;20980;-55
2022/04/30 00:42:16;;;;;;;9.30;6.97;;;14.10;83.60;;;14.23;56.39;95355.91;5046674;28;20462;-54
2022/04/30 00:44:47;;;;;;;7.03;6.00;;;14.10;83.80;;;14.23;56.32;95369.16;5045355;28;21029;-56
2022/04/30 00:47:16;;;;;;;6.67;6.07;;;14.10;83.90;;;14.22;56.68;95362.22;5053028;28;20487;-55
2022/04/30 00:49:44;;;;;;;8.00;5.93;;;14.10;84.10;;;14.21;56.53;95355.25;5045524;28;20543;-56
2022/04/30 00:52:14;;;;;;;7.20;6.00;;;14.10;84.10;;;14.20;56.50;95353.56;5047657;28;20455;-55
2022/04/30 00:54:41;;;;;;;7.67;6.97;;;14.10;84.10;;;14.19;56.39;95357.22;5053347;28;20451;-54
2022/04/30 00:57:11;;;;;;;9.40;6.30;;;14.00;84.00;;;14.18;56.57;95350.25;5050521;28;20972;-55
2022/04/30 00:59:39;;;;;;;8.13;6.70;;;14.00;84.00;;;14.20;56.54;95347.47;5050495;28;20521;-55
2022/04/30 01:02:10;;;;;;;7.10;6.40;;;14.00;84.10;;;14.18;56.79;95339.69;5059547;28;20530;-56
2022/04/30 01:04:37;;;;;;;6.70;5.57;;;14.00;84.00;;;14.14;56.32;95344.44;5048583;28;20502;-54
2022/04/30 01:07:07;;;;;;;7.27;6.57;;;14.00;84.00;;;14.12;56.66;95345.56;5055833;28;20495;-55
2022/04/30 01:09:35;;;;;;;7.37;6.57;;;14.00;84.00;;;14.07;56.69;95339.91;5052509;28;20823;-55
2022/04/30 01:12:06;;;;;;;7.57;6.20;;;13.90;84.70;;;13.99;57.00;95345.94;5049680;28;20455;-54
2022/04/30 01:14:34;;;;;;;7.77;7.07;;;13.90;84.80;;;13.90;57.11;95342.38;5049934;28;20541;-55
2022/04/30 01:17:05;;;;;;;6.20;5.70;;;13.80;84.70;;;13.86;56.99;95334.88;5050581;28;20456;-55
2022/04/30 01:19:33;;;;;;;7.77;6.97;;;13.70;84.80;;;13.86;56.98;95337.53;5046294;28;20479;-55
2022/04/30 01:22:02;;;;;;;7.47;6.77;;;13.70;85.00;;;13.86;56.99;95341.00;5059057;28;20759;-55
2022/04/30 01:24:31;;;;;;;8.83;7.60;;;13.70;85.20;;;13.86;57.34;95338.34;5054936;28;20960;-54
2022/04/30 01:26:59;;;;;;;9.33;7.20;;;13.70;85.40;;;13.87;57.28;95336.56;5059008;28;20529;-54
2022/04/30 01:29:26;;;;;;;12.23;6.33;;;13.70;85.50;;;13.87;57.25;95350.59;5048601;28;20462;-57
2022/04/30 01:37:24;;;;;;;7.03;5.93;;;13.70;85.40;;;13.84;57.10;95342.13;5046733;28;20489;-55
2022/04/30 01:39:56;;;;;;;8.43;6.53;;;13.70;85.60;;;13.82;57.24;95339.63;5052175;28;20583;-55
2022/04/30 01:42:24;;;;;;;7.87;7.07;;;13.70;85.80;;;13.80;57.30;95334.50;5048370;28;20535;-55
2022/04/30 01:44:51;;;;;;;13.10;7.37;;;13.70;85.80;;;13.78;57.54;95333.78;5056734;28;20521;-54
2022/04/30 01:47:19;;;;;;;10.33;7.03;;;13.60;85.70;;;13.77;57.73;95331.31;5048047;28;21015;-54
2022/04/30 01:49:46;;;;;;;9.37;8.47;;;13.60;85.70;;;13.76;57.65;95343.69;5044921;28;21042;-55
2022/04/30 01:52:14;;;;;;;9.70;8.00;;;13.60;86.00;;;13.75;57.93;95338.56;5046118;28;20533;-56
2022/04/30 01:54:42;;;;;;;11.80;7.83;;;13.60;86.90;;;13.73;57.84;95330.78;5053513;28;20477;-54
2022/04/30 01:57:12;;;;;;;8.67;7.87;;;13.60;86.30;;;13.71;57.56;95331.88;5049069;28;20845;-54
2022/04/30 01:59:40;;;;;;;9.90;7.63;;;13.60;86.30;;;13.69;57.68;95336.50;5056541;28;20550;-55
2022/04/30 02:02:07;;;;;;;9.13;7.13;;;13.50;86.50;;;13.67;58.18;95338.47;5051544;28;20979;-55
2022/04/30 02:04:35;;;;;;;10.13;8.80;;;13.50;86.70;;;13.65;58.10;95335.13;5042318;28;20468;-54
2022/04/30 02:07:02;;;;;;;9.00;7.53;;;13.50;87.00;;;13.62;58.23;95336.28;5058341;28;20490;-55
2022/04/30 02:09:30;;;;;;;9.67;7.87;;;13.50;87.00;;;13.60;58.13;95336.41;5052450;28;20909;-56
2022/04/30 02:11:58;;;;;;;20.43;8.47;;;13.50;87.30;;;13.56;58.39;95337.69;5045907;28;20569;-55
2022/04/30 02:14:28;;;;;;;8.73;7.93;;;13.40;87.50;;;13.54;58.53;95334.34;5051874;28;20531;-55
2022/04/30 02:16:55;;;;;;;8.63;7.83;;;13.40;87.50;;;13.52;58.58;95335.47;5051898;28;20474;-55
2022/04/30 02:19:22;;;;;;;9.57;8.57;;;13.40;88.60;;;13.51;58.76;95332.00;5043748;28;20456;-55
2022/04/30 02:21:50;;;;;;;8.53;7.73;;;13.40;88.10;;;13.48;58.37;95327.00;5061576;28;20482;-54
2022/04/30 02:24:17;;;;;;;12.33;8.27;;;13.40;88.10;;;13.45;58.83;95330.78;5060046;28;20532;-55
2022/04/30 02:26:45;;;;;;;12.27;7.33;;;13.30;88.00;;;13.44;58.89;95331.75;5064805;28;20564;-56
2022/04/30 02:29:12;;;;;;;8.90;8.10;;;13.30;88.30;;;13.40;58.82;95330.38;5062553;28;20470;-53
2022/04/30 02:31:40;;;;;;;8.23;7.40;;;13.30;88.40;;;13.38;59.10;95328.84;5052921;28;20483;-54
2022/04/30 02:34:08;;;;;;;12.60;8.00;;;13.30;88.50;;;13.32;58.89;95332.88;5054080;28;20458;-55
2022/04/30 02:36:36;;;;;;;8.67;7.87;;;13.20;88.50;;;13.30;59.18;95328.72;5054262;28;20502;-56
2022/04/30 02:39:03;;;;;;;9.73;8.37;;;13.20;88.90;;;13.25;59.12;95327.34;5053192;28;20496;-55
2022/04/30 02:41:31;;;;;;;11.53;7.93;;;13.10;89.20;;;13.21;59.55;95323.31;5058987;28;20490;-55
2022/04/30 02:43:59;;;;;;;9.80;8.80;;;13.10;89.40;;;13.18;59.73;95326.25;5057909;28;21023;-56
2022/04/30 02:46:26;;;;;;;8.80;7.83;;;13.10;89.70;;;13.14;59.78;95330.19;5060915;28;20600;-55
2022/04/30 02:48:54;;;;;;;9.80;7.93;;;13.00;89.60;;;13.11;59.56;95335.75;5054550;28;20466;-57
2022/04/30 02:51:22;;;;;;;13.10;9.43;;;13.00;89.80;;;13.07;59.94;95323.78;5053319;28;20535;-56
2022/04/30 02:53:50;;;;;;;9.43;8.43;;;13.00;90.00;;;13.05;59.90;95321.31;5047223;28;20456;-54
2022/04/30 02:56:18;;;;;;;11.17;7.27;;;12.90;90.00;;;13.02;60.14;95326.88;5048378;28;20847;-56
2022/04/30 03:01:29;;;;;;;9.77;8.30;;;12.90;90.40;;;12.95;60.04;95324.94;5052836;28;20596;-56
2022/04/30 03:03:58;;;;;;;12.27;9.00;;;12.90;90.30;;;12.91;60.27;95321.75;5055044;28;20463;-56
2022/04/30 03:06:25;;;;;;;13.80;9.60;;;12.80;90.40;;;12.88;60.40;95316.78;5053878;28;21014;-56
2022/04/30 03:08:53;;;;;;;10.57;8.30;;;12.80;90.40;;;12.86;60.31;95310.81;5055320;28;20955;-55
2022/04/30 03:11:20;;;;;;;11.90;9.03;;;12.80;90.40;;;12.85;60.55;95309.97;5055749;28;20472;-56
2022/04/30 03:13:47;;;;;;;10.47;8.20;;;12.70;90.60;;;12.86;60.52;95316.09;5046802;28;20462;-55
2022/04/30 03:21:47;;;;;;;9.73;8.77;;;12.70;90.90;;;12.79;60.90;95314.97;5022599;28;20521;-56
2022/04/30 03:24:16;;;;;;;14.87;9.97;;;12.70;91.00;;;12.74;61.10;95315.41;5050120;28;20950;-56
2022/04/30 03:26:44;;;;;;;11.00;8.60;;;12.70;91.10;;;12.75;60.73;95325.00;5054470;28;20499;-55
2022/04/30 03:29:11;;;;;;;20.93;9.40;;;12.70;91.10;;;12.74;60.99;95323.34;5050572;28;20548;-55
2022/04/30 03:31:39;;;;;;;12.93;9.00;;;12.60;91.20;;;12.74;61.36;95331.25;5049605;28;20487;-55
2022/04/30 03:34:09;;;;;;;11.57;9.10;;;12.60;91.40;;;12.71;61.39;95328.88;5046387;28;20543;-55
2022/04/30 03:36:36;;;;;;;9.40;8.40;;;12.60;91.40;;;12.71;61.25;95328.88;5050546;28;20972;-54
2022/04/30 03:39:04;;;;;;;11.73;9.00;;;12.60;91.40;;;12.69;61.34;95334.31;5058897;28;20467;-54
2022/04/30 03:41:31;;;;;;;12.83;8.87;;;12.60;91.40;;;12.68;61.53;95339.72;5058776;28;20967;-55
2022/04/30 03:43:59;;;;;;;10.07;8.97;;;12.60;91.70;;;12.67;61.38;95338.06;5047085;28;20463;-56
2022/04/30 03:46:28;;;;;;;10.30;9.20;;;12.60;91.50;;;12.64;61.18;95344.47;5054180;28;20501;-55
2022/04/30 03:48:56;;;;;;;11.83;7.53;;;12.50;91.50;;;12.63;61.65;95353.34;5062789;28;20454;-54
2022/04/30 03:51:25;;;;;;;9.73;8.80;;;12.50;91.50;;;12.59;61.28;95335.28;5054353;28;20483;-56
2022/04/30 03:53:52;;;;;;;16.37;9.93;;;12.50;91.50;;;12.57;61.46;95340.72;5042118;28;20460;-57
2022/04/30 03:56:21;;;;;;;19.93;11.20;;;12.50;91.50;;;12.53;61.29;95332.25;5051551;28;20483;-54
2022/04/30 03:58:49;;;;;;;15.20;9.63;;;12.50;91.50;;;12.52;61.65;95341.13;5055668;28;20460;-56
2022/04/30 04:01:18;;;;;;;11.03;8.70;;;12.40;91.60;;;12.51;60.82;95336.81;5049822;28;21201;-56
2022/04/30 04:03:45;;;;;;;13.50;10.10;;;12.40;91.30;;;12.48;61.58;95339.75;5052323;28;20463;-56
2022/04/30 04:06:16;;;;;;;12.93;10.00;;;12.40;91.50;;;12.47;61.54;95343.38;5055417;28;20478;-55
2022/04/30 04:08:49;;;;;;;13.23;9.27;;;12.40;91.60;;;12.49;61.67;95343.22;5052434;28;20442;-56
2022/04/30 04:11:17;;;;;;;12.23;9.30;;;12.40;91.70;;;12.49;61.58;95344.06;5047113;28;20460;-55
2022/04/30 04:19:13;;;;;;;13.43;9.80;;;12.40;92.00;;;12.58;61.61;95346.81;5050497;28;20546;-56
2022/04/30 04:21:41;;;;;;;11.90;9.43;;;12.50;91.90;;;12.62;61.48;95340.28;5046937;28;21012;-55
2022/04/30 04:26:54;;;;;;;14.80;8.80;;;12.50;92.00;;;12.73;61.84;95353.31;5049253;28;21042;-56
2022/04/30 04:29:22;;;;;;;11.80;9.10;;;12.60;92.00;;;12.77;61.70;95353.91;5046890;28;20448;-56
2022/04/30 04:31:49;;;;;;;11.67;9.67;;;12.60;91.90;;;12.82;61.59;95356.94;5042048;28;20476;-56
2022/04/30 04:34:16;;;;;;;12.80;9.83;;;12.70;91.90;;;12.87;61.28;95354.69;5042539;28;20885;-57
2022/04/30 04:36:43;;;;;;;21.27;10.30;;;12.70;91.80;;;12.91;61.54;95351.63;5060023;28;20526;-56
2022/04/30 04:39:14;;;;;;;12.30;9.57;;;12.80;91.90;;;12.98;61.20;95345.78;5052129;28;20847;-54
2022/04/30 04:41:43;;;;;;;10.03;8.47;;;12.90;91.80;;;13.05;61.28;95346.88;5047639;28;20773;-57
2022/04/30 04:44:10;;;;;;;14.20;10.30;;;12.90;91.70;;;13.09;61.06;95350.91;5043953;28;21024;-56
2022/04/30 04:46:37;;;;;;;16.93;9.87;;;13.00;91.60;;;13.14;61.08;95356.59;5054423;28;20506;-55
2022/04/30 04:49:05;;;;;;;14.10;10.20;;;13.00;91.60;;;13.22;61.15;95353.22;5040727;28;20460;-55
2022/04/30 04:51:33;;;;;;;15.43;11.23;;;13.10;91.60;;;13.31;60.65;95351.50;5047739;28;20475;-57
2022/04/30 04:54:01;;;;;;;13.37;10.60;;;13.10;91.50;;;13.37;60.81;95351.81;5052163;28;20478;-56
2022/04/30 04:56:30;;;;;;;13.03;10.27;;;13.20;91.50;;;13.46;60.75;95355.38;5051834;28;20478;-56
2022/04/30 04:58:58;;;;;;;13.20;10.20;;;13.30;91.50;;;13.53;60.43;95355.66;5049963;28;20571;-56
2022/04/30 05:01:26;;;;;;;12.77;8.83;;;13.40;91.40;;;13.61;60.83;95361.84;5047321;28;20476;-55
2022/04/30 05:03:53;;;;;;;17.33;9.47;;;13.40;91.40;;;13.69;60.42;95362.94;5045979;28;20452;-55
2022/04/30 05:06:20;;;;;;;13.80;10.07;;;13.50;91.10;;;13.75;60.47;95357.88;5053999;28;20482;-58
2022/04/30 05:08:47;;;;;;;12.13;9.90;;;13.60;91.20;;;13.83;60.30;95361.63;5044964;28;20823;-56
2022/04/30 05:11:15;;;;;;;13.33;9.60;;;13.60;90.90;;;13.91;59.87;95359.06;5046465;28;20484;-56
2022/04/30 05:13:43;;;;;;;11.80;10.40;;;13.70;90.90;;;13.99;60.03;95364.44;5056193;28;20459;-56
2022/04/30 05:16:11;;;;;;;24.50;9.77;;;13.80;90.90;;;14.06;59.63;95359.38;5051059;28;20489;-57
2022/04/30 05:18:39;;;;;;;15.87;11.30;;;13.90;90.80;;;14.12;59.91;95359.63;5045972;28;20463;-56
2022/04/30 05:21:06;;;;;;;14.33;11.43;;;13.90;90.70;;;14.21;59.71;95359.72;5047689;28;20508;-56
2022/04/30 05:23:34;;;;;;;13.60;9.23;;;14.00;90.80;;;14.35;59.41;95359.19;5053014;28;20462;-57
2022/04/30 05:26:01;;;;;;;16.90;12.23;;;14.10;90.80;;;14.51;59.68;95363.78;5052281;28;20488;-56
2022/04/30 05:28:28;;;;;;;17.70;11.30;;;14.30;90.80;;;14.70;59.24;95368.97;5050882;28;20957;-56
2022/04/30 05:30:57;;;;;;;13.33;10.67;;;14.40;90.50;;;14.88;58.75;95368.09;5045450;28;20622;-55
2022/04/30 05:33:24;;;;;;;13.40;9.97;;;14.60;90.40;;;15.04;58.42;95367.38;5043121;28;20456;-54
2022/04/30 05:35:51;;;;;;;25.10;10.77;;;14.80;90.10;;;15.15;58.16;95363.66;5052098;28;20474;-55
2022/04/30 05:38:20;;;;;;;13.40;11.63;;;14.90;90.00;;;15.32;58.24;95373.38;5052249;28;20576;-55
2022/04/30 05:40:47;;;;;;;15.80;10.53;;;15.10;89.90;;;15.49;57.95;95371.66;5050903;28;20478;-57
2022/04/30 05:43:15;;;;;;;11.63;9.93;;;15.20;89.40;;;15.69;57.42;95374.03;5055002;28;20479;-56
2022/04/30 05:45:42;;;;;;;11.90;10.07;;;15.40;89.00;;;15.86;57.26;95367.03;5047188;28;20484;-56
2022/04/30 05:48:11;;;;;;;13.80;10.30;;;15.60;88.30;;;16.02;57.00;95377.69;5047644;28;20499;-57
2022/04/30 05:50:38;;;;;;;10.27;9.30;;;15.70;87.90;;;16.16;56.52;95373.59;5047001;28;20716;-57
2022/04/30 05:53:06;;;;;;;14.10;8.80;;;15.90;87.30;;;16.30;56.26;95375.63;5045524;28;20464;-55
2022/04/30 05:55:33;;;;;;;14.93;9.47;;;16.00;87.10;;;16.46;55.87;95376.63;5043831;28;20475;-55
2022/04/30 05:58:01;;;;;;;14.30;10.50;;;16.10;85.70;;;16.60;55.47;95375.16;5051934;28;20461;-56
2022/04/30 06:00:28;;;;;;;19.77;9.43;;;16.30;85.10;;;16.67;55.36;95374.34;5047692;28;20526;-57
2022/04/30 06:02:56;;;;;;;10.83;9.63;;;16.40;84.70;;;16.80;55.44;95375.66;5044557;28;20852;-57
2022/04/30 06:05:25;;;;;;;11.20;9.10;;;16.50;85.20;;;16.92;55.27;95379.69;5052901;28;20542;-57
2022/04/30 06:07:53;;;;;;;12.80;10.70;;;16.60;84.10;;;17.08;54.78;95375.38;5056794;28;20498;-57
2022/04/30 06:10:21;;;;;;;10.37;9.30;;;16.70;84.10;;;17.24;54.68;95377.97;5048941;28;20468;-58
2022/04/30 06:12:48;;;;;;;9.53;8.60;;;16.90;84.40;;;17.41;54.71;95372.66;5057786;28;20451;-58
2022/04/30 06:15:16;;;;;;;11.50;8.60;;;17.10;83.70;;;17.56;53.96;95374.44;5052178;28;20472;-58
2022/04/30 06:17:43;;;;;;;10.07;8.83;;;17.20;82.90;;;17.74;53.72;95376.06;5057593;28;20451;-57
2022/04/30 06:20:12;;;;;;;12.83;9.23;;;17.40;82.20;;;17.85;52.96;95372.19;5047183;28;20476;-56
2022/04/30 06:22:41;;;;;;;13.50;11.03;;;17.50;81.40;;;17.92;53.08;95376.69;5055617;28;20447;-56
2022/04/30 06:25:10;;;;;;;12.90;9.80;;;17.60;80.20;;;17.99;52.94;95373.34;5049831;28;20593;-57
2022/04/30 06:27:37;;;;;;;14.53;9.33;;;17.70;79.50;;;18.12;52.85;95370.91;5058159;28;20495;-57
2022/04/30 06:30:06;;;;;;;10.00;9.00;;;17.80;79.60;;;18.35;52.67;95373.63;5053049;28;20479;-55
2022/04/30 06:32:33;;;;;;;9.53;8.10;;;17.90;79.40;;;18.61;52.34;95375.97;5043407;28;20477;-58
2022/04/30 06:35:01;;;;;;;13.97;8.27;;;18.20;78.90;;;18.85;51.19;95366.16;5038695;28;20944;-58
2022/04/30 06:37:28;;;;;;;11.03;8.87;;;18.40;78.10;;;19.07;50.68;95363.63;5051052;28;20468;-57
2022/04/30 06:39:57;;;;;;;14.07;8.60;;;18.70;76.80;;;19.23;50.45;95366.16;5047867;28;21053;-57
2022/04/30 06:42:24;;;;;;;9.27;8.37;;;18.80;74.90;;;19.30;50.13;95369.78;5041601;28;20452;-59
2022/04/30 06:44:52;;;;;;;9.33;8.33;;;18.90;74.30;;;19.30;49.72;95367.09;5038556;28;20468;-56
2022/04/30 06:47:20;;;;;;;10.50;9.33;;;19.00;73.70;;;19.42;49.14;95372.81;5042997;28;21075;-58
2022/04/30 06:49:50;;;;;;;10.17;8.37;;;19.10;72.90;;;19.58;49.01;95361.16;5045590;28;20502;-59
2022/04/30 06:52:18;;;;;;;10.23;7.87;;;19.20;72.50;;;19.70;48.67;95365.00;5043567;28;20527;-56
2022/04/30 06:57:32;;;;;;;12.27;8.67;;;19.40;71.20;;;19.93;48.19;95361.41;5041922;28;20443;-58
2022/04/30 07:00:39;;;;;;;9.43;8.43;;;19.50;70.00;;;20.10;47.73;95363.91;5046869;28;20582;-57
2022/04/30 07:02:47;;;;;;;9.30;7.33;;;19.70;69.80;;;20.34;47.83;95357.38;5042330;28;20467;-58
2022/04/30 07:05:15;;;;;;;9.50;8.50;;;19.90;69.40;;;20.58;47.06;95357.03;5039214;28;20489;-57
2022/04/30 07:07:42;;;;;;;8.97;8.07;;;20.10;68.40;;;20.82;46.92;95355.03;5047600;28;21009;-56
2022/04/30 07:10:10;;;;;;;12.30;8.57;;;20.40;67.80;;;20.97;45.88;95354.94;5050456;28;21034;-57
2022/04/30 07:12:39;;;;;;;14.23;8.00;;;20.60;65.90;;;21.02;45.28;95352.56;5051192;28;20963;-57
2022/04/30 07:15:08;;;;;;;32.33;10.47;;;20.60;64.40;;;21.11;45.74;95358.56;5043807;28;21008;-56
2022/04/30 07:17:35;;;;;;;8.70;7.30;;;20.70;65.20;;;21.18;44.85;95350.59;5044505;28;20492;-56
2022/04/30 07:20:04;;;;;;;10.73;7.77;;;20.80;63.10;;;21.17;44.70;95354.31;5052108;28;20474;-57
2022/04/30 07:22:31;;;;;;;19.30;8.50;;;20.80;62.20;;;21.15;44.61;95351.81;5047495;28;20452;-59
2022/04/30 07:24:58;;;;;;;9.30;7.90;;;20.80;62.00;;;21.16;44.67;95358.00;5053644;28;20476;-55
2022/04/30 07:27:26;;;;;;;15.30;9.07;;;20.80;61.90;;;21.12;44.38;95354.88;5050538;28;21032;-57
2022/04/30 07:29:54;;;;;;;9.00;8.07;;;20.80;60.90;;;21.12;44.46;95349.53;5055390;28;20466;-57
2022/04/30 07:32:22;;;;;;;9.20;8.30;;;20.70;60.70;;;21.27;44.45;95354.78;5038050;28;20506;-56
2022/04/30 07:34:49;;;;;;;11.00;7.80;;;20.80;61.20;;;21.46;44.23;95353.28;5053228;28;20494;-56
2022/04/30 07:37:17;;;;;;;8.87;7.97;;;21.00;61.00;;;21.69;44.10;95341.50;5056627;28;20535;-56
2022/04/30 07:39:44;;;;;;;7.43;6.73;;;21.20;61.10;;;21.82;42.43;95353.09;5060356;28;20442;-57
2022/04/30 07:42:11;;;;;;;8.57;7.13;;;21.40;58.90;;;21.79;42.63;95348.13;5060027;28;20451;-57
2022/04/30 07:44:39;;;;;;;12.70;7.40;;;21.40;57.80;;;21.71;42.68;95344.81;5057123;28;20450;-56
2022/04/30 07:47:08;;;;;;;11.97;6.90;;;21.40;58.00;;;21.72;42.87;95349.13;5061111;28;20462;-56
2022/04/30 07:49:36;;;;;;;13.27;7.63;;;21.40;58.30;;;21.78;43.25;95346.50;5061508;28;20541;-57
2022/04/30 07:52:05;;;;;;;11.50;8.23;;;21.50;58.40;;;21.98;42.60;95340.41;5049335;28;20452;-57
2022/04/30 07:54:32;;;;;;;7.53;6.83;;;21.60;57.90;;;22.18;42.94;95341.31;5053409;28;20507;-57
2022/04/30 07:57:00;;;;;;;6.80;6.10;;;21.70;58.10;;;22.40;42.73;95335.03;5057285;28;20817;-57
2022/04/30 07:59:28;;;;;;;8.60;7.80;;;21.90;57.90;;;22.47;40.30;95335.88;5056774;28;20497;-57
2022/04/30 08:01:55;;;;;;;9.77;7.50;;;22.00;55.10;;;22.49;42.23;95331.13;5057824;28;20459;-57
2022/04/30 08:04:24;;;;;;;9.27;7.70;;;22.10;56.80;;;22.63;41.81;95335.47;5050139;28;20662;-57
2022/04/30 08:06:52;;;;;;;14.23;6.97;;;22.20;56.70;;;22.77;41.60;95328.28;5060623;28;20471;-56
2022/04/30 08:09:19;;;;;;;11.37;6.80;;;22.40;56.50;;;22.88;42.11;95338.41;5062002;28;20511;-59
2022/04/30 08:11:47;;;;;;;7.97;7.27;;;22.50;56.30;;;22.97;41.72;95336.34;5056710;28;20845;-57
2022/04/30 08:14:14;;;;;;;11.23;6.53;;;22.60;55.80;;;23.09;41.32;95332.03;5047347;28;20448;-56
2022/04/30 08:16:41;;;;;;;11.40;7.70;;;22.70;55.40;;;23.09;40.24;95341.97;5046037;28;20467;-57
2022/04/30 08:19:09;;;;;;;7.40;6.70;;;22.70;53.60;;;22.93;40.67;95335.13;5043082;28;20451;-57
2022/04/30 08:21:38;;;;;;;32.90;7.87;;;22.70;53.60;;;23.02;40.65;95328.53;5050297;28;20467;-57
2022/04/30 08:24:06;;;;;;;8.03;7.13;;;22.70;54.40;;;23.17;40.50;95333.69;5046701;28;20452;-56
2022/04/30 08:26:34;;;;;;;8.60;7.80;;;22.80;54.70;;;23.21;40.58;95332.25;5048310;28;20460;-56
2022/04/30 08:29:01;;;;;;;9.90;7.03;;;22.80;55.10;;;23.12;40.64;95328.13;5051610;28;20496;-56
2022/04/30 08:31:28;;;;;;;8.10;7.30;;;22.80;54.40;;;22.88;41.29;95326.84;5047653;28;20472;-56
2022/04/30 08:33:56;;;;;;;7.90;7.10;;;22.60;55.60;;;22.67;42.55;95327.88;5054118;28;20960;-57
2022/04/30 08:36:23;;;;;;;6.20;5.50;;;22.40;56.60;;;22.57;41.96;95322.88;5056561;28;20857;-57
2022/04/30 08:38:52;;;;;;;11.00;6.17;;;22.30;56.10;;;22.62;41.78;95324.94;5060477;28;21038;-57
2022/04/30 08:41:21;;;;;;;6.27;5.67;;;22.20;55.80;;;22.67;41.13;95319.81;5062085;28;20471;-56
2022/04/30 08:43:49;;;;;;;6.40;5.90;;;22.30;55.10;;;22.73;41.92;95322.50;5064260;28;20837;-56
2022/04/30 08:46:19;;;;;;;11.20;6.47;;;22.40;55.80;;;22.76;41.79;95315.91;5060196;28;20476;-57
2022/04/30 08:48:46;;;;;;;7.80;5.17;;;22.30;55.40;;;22.64;41.17;95322.91;5056073;28;20482;-55
2022/04/30 08:51:15;;;;;;;7.30;6.07;;;22.30;54.60;;;22.44;40.21;95325.56;5058532;28;20892;-57
2022/04/30 08:53:43;;;;;;;11.10;5.30;;;22.10;53.70;;;22.34;41.29;95313.38;5061918;28;20470;-57
2022/04/30 08:56:12;;;;;;;11.13;5.80;;;22.00;54.40;;;22.23;40.55;95302.38;5058376;28;20475;-54
2022/04/30 08:58:39;;;;;;;6.03;5.30;;;21.90;52.90;;;21.97;40.62;95311.97;5058103;28;20540;-55
2022/04/30 09:01:09;;;;;;;6.77;6.13;;;21.70;53.00;;;21.81;41.56;95303.25;5054556;28;21017;-57
2022/04/30 09:03:38;;;;;;;5.13;4.83;;;21.50;54.40;;;21.77;41.82;95314.56;5060636;28;20534;-56
2022/04/30 09:06:05;;;;;;;5.63;5.13;;;21.40;55.40;;;21.82;41.62;95306.75;5054406;28;20459;-56
2022/04/30 09:08:33;;;;;;;5.20;4.80;;;21.40;55.70;;;21.91;42.25;95312.78;5054618;28;20588;-56
2022/04/30 09:11:07;;;;;;;6.90;4.70;;;21.50;56.20;;;22.08;41.82;95307.91;5061621;28;20512;-56
2022/04/30 09:13:43;;;;;;;5.90;5.40;;;21.60;56.00;;;22.27;41.67;95303.63;5055678;28;20532;-56
2022/04/30 09:16:20;;;;;;;7.20;6.03;;;21.80;56.00;;;22.53;42.10;95301.03;5058744;28;20539;-56
2022/04/30 09:18:48;;;;;;;25.63;6.13;;;22.00;56.50;;;22.78;41.92;95307.66;5057763;28;20542;-56
2022/04/30 09:21:16;;;;;;;6.53;5.77;;;22.30;56.50;;;23.02;39.84;95308.91;5062778;28;20601;-55
2022/04/30 09:23:43;;;;;;;6.40;5.20;;;22.50;53.50;;;23.07;40.69;95309.13;5060421;28;20534;-57
2022/04/30 09:26:11;;;;;;;6.00;5.50;;;22.60;54.00;;;23.11;40.52;95313.06;5059323;28;20490;-56
2022/04/30 09:28:42;;;;;;;4.83;4.43;;;22.70;53.40;;;23.18;40.32;95308.50;5058883;28;20538;-56
2022/04/30 09:31:11;;;;;;;5.73;4.70;;;22.80;53.60;;;23.15;39.94;95302.75;5056814;28;20474;-57
2022/04/30 09:33:39;;;;;;;6.33;4.60;;;22.80;53.40;;;23.11;39.82;95307.69;5053974;28;20776;-57
2022/04/30 09:38:54;;;;;;;4.93;4.53;;;22.70;52.90;;;23.08;39.52;95302.69;5059419;28;20922;-57
2022/04/30 09:41:24;;;;;;;8.87;5.20;;;22.70;52.50;;;23.09;40.14;95296.34;5046667;28;20472;-55
2022/04/30 09:44:04;;;;;;;5.33;4.93;;;22.70;52.80;;;23.13;38.48;95300.28;5044356;28;20474;-57
2022/04/30 09:46:33;;;;;;;10.03;4.30;;;22.70;51.50;;;23.13;37.91;95292.22;5043735;28;20567;-56
2022/04/30 09:54:30;;;;;;;3.50;3.30;;;22.80;49.70;;;23.04;37.04;95285.38;5054059;28;20431;-56
2022/04/30 09:56:59;;;;;;;7.70;3.67;;;22.70;49.10;;;22.90;38.81;95281.88;5049102;28;20477;-56
2022/04/30 09:59:28;;;;;;;7.73;3.73;;;22.50;50.90;;;22.83;37.80;95281.88;5061168;28;20557;-56
2022/04/30 10:01:55;;;;;;;4.37;2.87;;;22.50;49.80;;;22.77;37.32;95268.47;5058651;28;20510;-57
2022/04/30 10:04:22;;;;;;;3.33;3.13;;;22.40;49.10;;;22.62;37.83;95276.69;5059374;28;20463;-59
2022/04/30 10:06:50;;;;;;;3.20;3.00;;;22.20;48.90;;;22.48;37.43;95281.22;5053762;28;20477;-56
2022/04/30 10:09:19;;;;;;;6.83;3.40;;;22.10;49.40;;;22.44;38.74;95263.91;5056259;28;20509;-56
2022/04/30 10:11:54;;;;;;;3.97;2.50;;;22.00;50.80;;;22.45;37.44;95266.38;5048244;28;20477;-56
2022/04/30 10:14:39;;;;;;;10.77;2.57;;;22.00;48.70;;;22.35;35.96;95257.91;5059076;28;20450;-58
2022/04/30 10:17:16;;;;;;;3.47;3.20;;;22.00;47.00;;;22.13;37.51;95252.66;5055772;28;20528;-56
2022/04/30 10:19:45;;;;;;;2.73;2.53;;;21.80;48.60;;;22.06;38.22;95251.00;5058806;28;20504;-54
2022/04/30 10:22:14;;;;;;;14.27;3.20;;;21.70;49.70;;;22.09;38.13;95245.25;5057510;28;20454;-57
2022/04/30 10:24:46;;;;;;;3.63;2.97;;;21.70;49.50;;;22.08;37.10;95236.38;5048718;28;20932;-58
2022/04/30 10:27:14;;;;;;;4.33;2.70;;;21.70;48.70;;;22.05;38.25;95244.00;5044369;28;20448;-56
2022/04/30 10:29:57;;;;;;;2.27;2.10;;;21.70;49.60;;;22.11;38.22;95241.34;5048063;28;20483;-57
2022/04/30 10:32:32;;;;;;;3.30;3.10;;;21.70;50.00;;;22.23;37.94;95240.75;5039584;28;20439;-56
2022/04/30 10:35:00;;;;;;;3.57;2.63;;;21.80;49.70;;;22.34;37.75;95237.50;5043878;28;20514;-57
2022/04/30 10:37:31;;;;;;;3.30;2.70;;;21.90;48.80;;;22.40;36.51;95239.34;5048348;28;20457;-57
2022/04/30 10:39:59;;;;;;;2.83;2.70;;;22.00;48.50;;;22.44;36.59;95235.22;5061803;28;20474;-57
2022/04/30 10:42:32;;;;;;;2.30;2.20;;;22.00;48.20;;;22.49;36.73;95229.25;5058770;28;20451;-56
2022/04/30 10:45:00;;;;;;;4.93;3.33;;;22.10;48.30;;;22.45;36.37;95228.84;5062399;28;20561;-56
2022/04/30 10:47:28;;;;;;;3.47;3.20;;;22.10;47.50;;;22.29;36.68;95230.06;5060369;28;20890;-56
2022/04/30 10:49:56;;;;;;;5.37;3.33;;;22.00;48.00;;;22.16;36.85;95227.34;5060396;28;20552;-57
2022/04/30 10:52:24;;;;;;;5.27;3.60;;;21.90;48.20;;;22.10;37.34;95233.50;5058762;28;20486;-55